Metar/Speci

METEOROLOGICAL AERODROME REPORT
STASIUN METEOROLOGI HANG NADIM BATAM

ADDS - METARS form results

(1909 UTC 22 March 2019)
Data provider http://aviationweather.gov/metar/data/
 
METAR text: WIDD 221900Z AUTO 01002KT 8000NDV BKN030 OVC038 27/25 Q1012
Conditions at: WIDD (HANG NADIM , ID) observed 1900 UTC 22 March 2019
Temperature: 27.0°C (81°F)
Dewpoint: 25.0°C (77°F) [RH = 89%]
Pressure (altimeter): 29.88 inches Hg (1012.0 mb)
Winds: from the N (10 degrees) at 2 MPH (2 knots; 1.0 m/s)
Visibility: missing
Ceiling: 3000 feet AGL
Clouds: broken clouds at 3000 feet AGL
overcast cloud deck at 3800 feet AGL
Weather: no significant weather observed at this time

METAR text: WIDD 221830Z AUTO 01003KT 8000NDV OVC031 27/25 Q1012
Conditions at: WIDD (HANG NADIM , ID) observed 1830 UTC 22 March 2019
Temperature: 27.0°C (81°F)
Dewpoint: 25.0°C (77°F) [RH = 89%]
Pressure (altimeter): 29.88 inches Hg (1012.0 mb)
Winds: from the N (10 degrees) at 3 MPH (3 knots; 1.5 m/s)
Visibility: missing
Ceiling: 3100 feet AGL
Clouds: overcast cloud deck at 3100 feet AGL
Weather: no significant weather observed at this time

Forecast for: WIDD (HANG NADIM , ID)
Text: TAF WIDD 221100Z 2212/2312 04006KT 9000 FEW014
Forecast period: 1200 UTC 22 March 2019 to 1200 UTC 23 March 2019
Forecast type: FROM: standard forecast or significant change
Winds: from the NE (40 degrees) at 7 MPH (6 knots; 3.1 m/s)
Visibility: 6 miles (9 km)
Ceiling: at least 12,000 feet AGL
Clouds: few clouds at 1400 feet AGL
Weather: no significant weather forecast for this period

Informasi METAR/SPECI dapat diakses juga di http://aviation.bmkg.go.id